Time;durP1;ratioP1;P1;durP2;ratioP2;P2;SDS_P1;SDS_P2;PMS_P1;PMS_P2;Temp;Humidity;BMP_temperature;BMP_pressure;BME280_temperature;BME280_humidity;BME280_pressure;Samples;Min_cycle;Max_cycle;Signal;HPM_P1;HPM_P2
2022/01/30 00:01:25;;;;;;;5.37;2.65;;;;;;;1.54;91.07;101733.10;1903250;75;21025;-61
2022/01/30 00:03:54;;;;;;;4.80;2.55;;;;;;;1.56;91.03;101729.67;1904274;75;21237;-62
2022/01/30 00:06:23;;;;;;;6.05;1.80;;;;;;;1.54;91.00;101725.31;1908581;75;21051;-60
2022/01/30 00:08:52;;;;;;;6.85;2.05;;;;;;;1.52;90.86;101728.31;1894329;76;21141;-60
2022/01/30 00:11:25;;;;;;;3.20;1.50;;;;;;;1.47;90.91;101723.91;1894463;76;21417;-57
2022/01/30 00:13:51;;;;;;;4.50;1.82;;;;;;;1.46;90.91;101723.48;1893468;76;21038;-61
2022/01/30 00:16:23;;;;;;;4.33;2.08;;;;;;;1.44;90.96;101722.16;1894285;76;21147;-60
2022/01/30 00:19:05;;;;;;;3.85;2.00;;;;;;;1.46;91.01;101715.70;1894849;76;21347;-60
2022/01/30 00:24:19;;;;;;;3.58;1.52;;;;;;;1.47;91.03;101711.80;1894933;76;21585;-59
2022/01/30 00:26:43;;;;;;;2.05;1.32;;;;;;;1.48;91.00;101710.10;1865581;76;21057;-59
2022/01/30 00:29:13;;;;;;;3.50;1.80;;;;;;;1.49;90.96;101702.74;1863023;77;21154;-59
2022/01/30 00:31:42;;;;;;;4.55;1.75;;;;;;;1.48;91.03;101703.61;1880712;76;21469;-58
2022/01/30 00:34:11;;;;;;;3.07;1.50;;;;;;;1.50;91.00;101709.69;1894585;76;21823;-58
2022/01/30 00:36:41;;;;;;;3.25;1.55;;;;;;;1.49;90.92;101704.91;1894896;76;21652;-58
2022/01/30 00:39:10;;;;;;;3.35;1.50;;;;;;;1.50;90.81;101700.17;1894943;76;21504;-59
2022/01/30 00:41:38;;;;;;;1.95;1.15;;;;;;;1.52;90.75;101703.66;1895487;75;21522;-58
2022/01/30 00:44:08;;;;;;;4.22;1.40;;;;;;;1.53;90.75;101700.63;1895489;76;21557;-57
2022/01/30 00:46:38;;;;;;;5.12;1.55;;;;;;;1.54;90.84;101692.86;1895346;76;21115;-57
2022/01/30 00:49:06;;;;;;;2.55;1.40;;;;;;;1.58;90.88;101691.63;1895673;76;21021;-62
2022/01/30 00:51:37;;;;;;;3.70;1.85;;;;;;;1.59;90.89;101691.64;1895546;76;21001;-57
2022/01/30 00:54:06;;;;;;;8.30;3.92;;;;;;;1.60;90.92;101689.91;1895060;76;21108;-57
2022/01/30 00:56:35;;;;;;;3.92;3.00;;;;;;;1.59;90.95;101682.56;1894928;76;21147;-57
2022/01/30 00:59:04;;;;;;;2.83;1.95;;;;;;;1.59;90.92;101675.20;1898774;75;21622;-57
2022/01/30 01:01:33;;;;;;;4.47;3.02;;;;;;;1.59;90.93;101676.50;1924444;74;21092;-57
2022/01/30 01:04:01;;;;;;;3.45;2.47;;;;;;;1.57;90.83;101671.69;1924556;74;21014;-57
2022/01/30 01:06:31;;;;;;;4.53;3.58;;;;;;;1.53;90.76;101662.98;1924553;74;21077;-57
2022/01/30 01:09:01;;;;;;;3.95;2.80;;;;;;;1.50;90.68;101663.84;1924700;74;21424;-57
2022/01/30 01:20:56;;;;;;;4.33;2.37;;;;;;;1.39;90.50;101657.63;1924568;74;21461;-57
2022/01/30 01:25:03;;;;;;;6.17;2.67;;;;;;;1.09;89.10;101653.77;1925052;74;21570;-57
2022/01/30 01:27:34;;;;;;;4.28;2.47;;;;;;;1.00;88.86;101652.33;1924818;73;21465;-57
2022/01/30 01:30:03;;;;;;;4.28;2.47;;;;;;;0.94;88.66;101649.63;1924821;74;21119;-57
2022/01/30 01:32:32;;;;;;;5.58;2.15;;;;;;;0.88;88.54;101650.84;1924717;74;21578;-57
2022/01/30 01:35:01;;;;;;;3.42;2.08;;;;;;;0.79;88.30;101642.91;1924846;74;21072;-57
2022/01/30 01:37:29;;;;;;;8.75;4.10;;;;;;;0.71;88.24;101632.43;1924797;74;21449;-58
2022/01/30 01:39:58;;;;;;;3.52;2.85;;;;;;;0.65;88.24;101631.91;1924973;74;21017;-58
2022/01/30 01:42:32;;;;;;;4.58;2.80;;;;;;;0.60;88.32;101632.69;1924863;74;21417;-58
2022/01/30 01:44:59;;;;;;;10.23;4.87;;;;;;;0.56;88.26;101633.06;1924362;74;21029;-58
2022/01/30 01:47:32;;;;;;;6.70;3.30;;;;;;;0.50;88.04;101632.94;1924795;74;21026;-58
2022/01/30 01:49:58;;;;;;;3.17;2.33;;;;;;;0.41;87.79;101627.59;1924443;74;21021;-58
2022/01/30 01:52:27;;;;;;;6.60;2.85;;;;;;;0.35;87.55;101622.78;1924764;74;21038;-57
2022/01/30 01:55:00;;;;;;;7.10;2.45;;;;;;;0.27;87.33;101623.06;1924810;74;21140;-58
2022/01/30 01:57:31;;;;;;;4.97;2.05;;;;;;;0.21;87.25;101617.78;1924637;74;21119;-57
2022/01/30 02:00:18;;;;;;;6.00;2.20;;;;;;;0.14;87.17;101624.56;1924829;74;21074;-57
2022/01/30 02:02:46;;;;;;;3.62;1.55;;;;;;;0.09;87.04;101621.44;1924953;74;21022;-58
2022/01/30 02:05:15;;;;;;;5.40;1.95;;;;;;;0.03;86.94;101629.11;1924858;74;21054;-58
2022/01/30 02:08:13;;;;;;;3.77;1.87;;;;;;;-0.03;86.88;101625.98;1924730;74;21464;-58
2022/01/30 02:10:24;;;;;;;5.72;2.15;;;;;;;-0.08;87.00;101625.88;1919938;74;21115;-58
2022/01/30 02:12:52;;;;;;;14.30;8.08;;;;;;;-0.05;87.44;101622.50;1923766;74;21034;-57
2022/01/30 02:26:05;;;;;;;28.23;13.15;;;;;;;-0.21;87.21;101629.08;1899931;75;21043;-58
2022/01/30 02:28:34;;;;;;;24.77;9.85;;;;;;;-0.28;87.11;101629.80;1911758;74;21018;-60
2022/01/30 02:31:09;;;;;;;17.45;6.75;;;;;;;-0.33;86.99;101622.36;1924635;74;21077;-58
2022/01/30 02:33:35;;;;;;;10.08;4.85;;;;;;;-0.39;87.04;101623.11;1923887;74;21014;-58
2022/01/30 02:36:04;;;;;;;10.05;4.75;;;;;;;-0.40;87.10;101631.73;1924701;74;21514;-58
2022/01/30 02:38:33;;;;;;;11.68;4.62;;;;;;;-0.42;87.11;101623.94;1924741;74;21026;-59
2022/01/30 02:41:02;;;;;;;10.88;3.55;;;;;;;-0.43;87.09;101628.65;1924750;74;21170;-60
2022/01/30 02:43:38;;;;;;;10.35;4.35;;;;;;;-0.45;87.08;101630.33;1924408;74;21119;-59
2022/01/30 02:48:59;;;;;;;49.75;26.90;;;;;;;-0.46;87.03;101627.31;1924607;74;21002;-59
2022/01/30 02:51:23;;;;;;;52.17;28.62;;;;;;;-0.46;87.16;101631.19;1923334;74;21050;-58
2022/01/30 02:54:03;;;;;;;53.23;32.40;;;;;;;-0.47;87.23;101628.14;1924512;74;21166;-58
2022/01/30 02:56:22;;;;;;;115.03;63.55;;;;;;;-0.52;86.90;101619.41;1920306;74;21077;-58
2022/01/30 02:58:51;;;;;;;121.85;60.52;;;;;;;-0.58;86.88;101619.28;1925430;74;21053;-60
2022/01/30 03:01:19;;;;;;;122.53;57.65;;;;;;;-0.60;86.86;101610.20;1929129;74;21006;-58
2022/01/30 03:03:48;;;;;;;75.90;38.78;;;;;;;-0.64;86.68;101605.80;1929137;74;21549;-57
2022/01/30 03:06:17;;;;;;;76.50;33.80;;;;;;;-0.70;86.50;101606.98;1941941;74;21137;-58
2022/01/30 03:08:46;;;;;;;71.90;30.88;;;;;;;-0.76;86.35;101607.27;1942215;74;21042;-58
2022/01/30 03:11:15;;;;;;;55.75;23.25;;;;;;;-0.83;86.31;101602.36;1942091;74;21481;-58
2022/01/30 03:13:44;;;;;;;39.42;17.25;;;;;;;-0.86;86.21;101603.61;1929095;74;21100;-58
2022/01/30 03:16:13;;;;;;;13.05;4.75;;;;;;;-0.87;86.28;101602.72;1942120;74;21039;-58
2022/01/30 03:18:43;;;;;;;10.55;4.53;;;;;;;-0.95;86.38;101600.83;1929030;74;21499;-59
2022/01/30 03:21:12;;;;;;;6.85;3.70;;;;;;;-1.05;86.79;101601.91;1942289;74;21128;-59
2022/01/30 03:23:41;;;;;;;9.00;3.52;;;;;;;-1.11;86.91;101597.02;1929197;74;20998;-58
2022/01/30 03:26:11;;;;;;;9.10;3.83;;;;;;;-1.17;86.91;101589.57;1942159;74;21023;-58
2022/01/30 03:28:47;;;;;;;8.35;3.25;;;;;;;-1.21;86.94;101594.22;1929051;74;21139;-58
2022/01/30 03:31:19;;;;;;;8.83;3.90;;;;;;;-1.27;87.13;101591.50;1940929;74;21083;-59
2022/01/30 03:33:49;;;;;;;6.00;2.98;;;;;;;-1.29;87.11;101593.58;1942046;74;21050;-58
2022/01/30 03:36:19;;;;;;;8.85;3.58;;;;;;;-1.28;86.81;101592.33;1928282;74;21057;-58
2022/01/30 03:38:48;;;;;;;10.50;4.93;;;;;;;-1.27;86.55;101589.31;1929120;74;21014;-58
2022/01/30 03:41:17;;;;;;;11.83;3.83;;;;;;;-1.30;86.40;101584.97;1942057;74;21477;-58
2022/01/30 03:43:46;;;;;;;5.62;3.62;;;;;;;-1.32;86.51;101587.94;1928984;74;21125;-58
2022/01/30 03:46:15;;;;;;;9.03;3.87;;;;;;;-1.36;86.51;101587.42;1942084;74;21504;-57
2022/01/30 03:48:44;;;;;;;6.47;3.52;;;;;;;-1.36;86.48;101592.59;1929119;74;21104;-57
2022/01/30 03:51:15;;;;;;;6.83;4.17;;;;;;;-1.39;86.44;101592.08;1926697;74;21151;-58
2022/01/30 03:53:43;;;;;;;7.97;4.00;;;;;;;-1.42;86.34;101579.50;1942032;74;21524;-58
2022/01/30 03:56:13;;;;;;;8.20;3.20;;;;;;;-1.44;86.32;101582.08;1941988;74;21051;-58
2022/01/30 03:58:42;;;;;;;6.22;3.35;;;;;;;-1.46;86.26;101580.27;1942109;74;21156;-59
2022/01/30 04:01:12;;;;;;;7.15;3.00;;;;;;;-1.49;86.23;101581.52;1937937;74;21160;-59
2022/01/30 04:03:41;;;;;;;6.50;3.72;;;;;;;-1.53;86.20;101573.21;1889878;76;21489;-59
2022/01/30 04:06:12;;;;;;;6.12;3.30;;;;;;;-1.53;86.25;101569.34;1924641;74;21017;-59
2022/01/30 04:08:41;;;;;;;6.87;3.55;;;;;;;-1.54;86.27;101565.89;1924416;74;21066;-59
2022/01/30 04:11:29;;;;;;;8.53;3.33;;;;;;;-1.52;86.75;101559.05;1902813;75;21152;-58
2022/01/30 04:14:09;;;;;;;7.15;3.20;;;;;;;-1.56;86.86;101555.94;1904124;74;21581;-57
2022/01/30 04:16:40;;;;;;;9.13;4.28;;;;;;;-1.60;86.65;101542.08;1921936;74;21151;-58
2022/01/30 04:19:25;;;;;;;7.35;3.67;;;;;;;-1.66;86.28;101549.70;1921861;74;21140;-59
2022/01/30 04:22:08;;;;;;;6.90;3.47;;;;;;;-1.66;86.28;101549.70;1923335;74;21538;-57
2022/01/30 04:24:39;;;;;;;7.55;2.80;;;;;;;-1.70;86.70;101546.56;1924569;74;21453;-57
2022/01/30 04:27:15;;;;;;;28.90;16.50;;;;;;;-1.70;86.70;101546.56;1922784;74;21030;-58
2022/01/30 04:29:53;;;;;;;6.70;3.15;;;;;;;-1.65;87.15;101542.81;1921829;74;21082;-58
2022/01/30 04:32:33;;;;;;;8.70;3.77;;;;;;;-1.71;87.62;101531.49;1923025;74;21078;-57
2022/01/30 04:35:15;;;;;;;23.75;10.10;;;;;;;-1.70;87.28;101531.49;1922506;74;21118;-57
2022/01/30 04:38:04;;;;;;;31.12;12.00;;;;;;;-1.74;86.67;101534.28;1923714;74;21118;-58
2022/01/30 04:52:18;;;;;;;2.37;1.62;;;;;;;-1.85;86.93;101532.00;1921026;74;21143;-57
2022/01/30 04:57:36;;;;;;;3.72;1.52;;;;;;;-2.08;86.98;101522.41;1922085;74;21045;-58
2022/01/30 05:00:32;;;;;;;4.55;1.80;;;;;;;-2.08;86.98;101522.41;1925083;74;21123;-58
2022/01/30 05:08:18;;;;;;;4.30;1.50;;;;;;;-2.11;87.18;101527.05;1941074;74;21069;-58
2022/01/30 05:10:53;;;;;;;;;;;;;;;-2.19;87.40;101525.58;1943847;74;21442;-58
2022/01/30 05:13:32;;;;;;;4.60;2.35;;;;;;;-2.10;87.76;101522.36;1941874;73;20426;-58
2022/01/30 05:16:02;;;;;;;6.12;2.90;;;;;;;-2.05;87.61;101524.62;1932867;74;21120;-58
2022/01/30 05:18:45;;;;;;;6.20;2.77;;;;;;;-1.93;87.60;101521.92;1905061;74;21115;-58
2022/01/30 05:21:25;;;;;;;7.22;3.20;;;;;;;-1.93;87.60;101521.92;1926469;74;21070;-58
2022/01/30 05:23:59;;;;;;;4.22;2.12;;;;;;;-1.89;88.16;101519.86;1928551;74;21218;-58
2022/01/30 05:26:29;;;;;;;8.08;1.70;;;;;;;-1.89;88.54;101512.98;1933342;74;21026;-59
2022/01/30 05:29:00;;;;;;;5.42;2.85;;;;;;;-1.83;88.85;101510.96;1924548;74;21111;-57
2022/01/30 05:31:47;;;;;;;10.20;3.00;;;;;;;-1.74;88.86;101513.77;1941972;74;21087;-57
2022/01/30 05:34:35;;;;;;;5.90;3.22;;;;;;;-1.71;88.55;101510.40;1928970;74;21103;-58
2022/01/30 05:37:08;;;;;;;5.85;2.67;;;;;;;-1.74;88.27;101506.02;1926135;74;21070;-58
2022/01/30 05:39:50;;;;;;;6.15;2.17;;;;;;;-1.78;88.05;101501.63;1908523;74;21062;-58
2022/01/30 05:42:23;;;;;;;6.12;1.98;;;;;;;-1.79;88.01;101499.86;1938112;74;21050;-58
2022/01/30 05:45:08;;;;;;;4.45;2.47;;;;;;;-1.64;88.26;101496.77;1939315;74;21541;-57
2022/01/30 05:47:55;;;;;;;5.00;2.63;;;;;;;-1.64;88.26;101496.77;1960724;73;21086;-57
2022/01/30 05:50:24;;;;;;;5.83;3.40;;;;;;;-1.47;88.83;101481.68;1957550;73;21212;-57
2022/01/30 05:52:54;;;;;;;6.65;3.42;;;;;;;-1.23;90.02;101469.28;1926978;74;21070;-58
2022/01/30 05:55:27;;;;;;;8.68;3.20;;;;;;;-1.23;90.02;101469.28;1921696;74;21050;-57
2022/01/30 05:57:56;;;;;;;5.15;2.47;;;;;;;-1.04;90.38;101473.53;1942030;74;21430;-57
2022/01/30 06:00:28;;;;;;;6.30;2.60;;;;;;;-0.98;90.59;101467.18;1928429;74;21066;-57
2022/01/30 06:02:58;;;;;;;6.67;1.82;;;;;;;-0.96;90.93;101459.03;1928860;74;21160;-57
2022/01/30 06:05:27;;;;;;;2.72;1.60;;;;;;;-0.92;91.22;101454.80;1928935;74;21038;-59
2022/01/30 06:07:57;;;;;;;2.15;1.47;;;;;;;-0.78;91.60;101463.27;1942156;74;21055;-58
2022/01/30 06:10:28;;;;;;;5.78;1.32;;;;;;;-0.53;92.29;101453.40;1929235;74;21005;-58
2022/01/30 06:12:56;;;;;;;4.78;1.47;;;;;;;-0.53;92.29;101453.40;1942113;74;21108;-58
2022/01/30 06:15:26;;;;;;;3.95;1.47;;;;;;;-0.40;92.45;101455.34;1942079;74;21140;-57
2022/01/30 06:17:56;;;;;;;4.30;1.85;;;;;;;-0.22;92.71;101462.56;1940528;74;21127;-59
2022/01/30 06:20:39;;;;;;;6.45;3.30;;;;;;;-0.04;92.76;101454.23;1938466;74;21469;-57
2022/01/30 06:23:09;;;;;;;5.67;3.35;;;;;;;0.12;92.69;101446.27;1922833;74;21057;-57
2022/01/30 06:25:56;;;;;;;14.18;6.65;;;;;;;0.24;92.51;101449.48;1942071;74;21514;-58
2022/01/30 06:28:43;;;;;;;9.13;4.97;;;;;;;0.32;92.33;101456.92;1929073;74;21139;-58
2022/01/30 06:31:16;;;;;;;10.63;4.53;;;;;;;0.37;92.14;101444.91;1924802;74;21493;-57
2022/01/30 06:33:47;;;;;;;16.05;6.17;;;;;;;0.43;92.08;101445.86;1942177;74;21047;-57
2022/01/30 06:36:19;;;;;;;10.43;4.60;;;;;;;0.50;91.94;101445.06;1960690;73;21062;-57
2022/01/30 06:38:52;;;;;;;6.80;3.52;;;;;;;0.53;91.88;101433.45;1960056;73;21083;-58
2022/01/30 06:41:25;;;;;;;12.30;5.30;;;;;;;0.58;91.86;101432.66;1929064;74;21143;-57
2022/01/30 06:44:02;;;;;;;7.08;3.72;;;;;;;0.47;91.56;101433.38;1894674;74;21090;-57
2022/01/30 06:46:32;;;;;;;8.75;3.33;;;;;;;0.36;91.36;101437.98;1938828;74;21561;-57
2022/01/30 06:49:19;;;;;;;7.80;3.00;;;;;;;0.33;91.49;101436.66;1941987;74;21119;-57
2022/01/30 06:52:09;;;;;;;9.48;2.40;;;;;;;0.36;91.90;101434.09;1929100;74;21137;-58
2022/01/30 06:54:54;;;;;;;6.37;2.90;;;;;;;0.44;92.20;101425.55;1929369;74;21077;-57
2022/01/30 06:57:46;;;;;;;7.97;1.92;;;;;;;0.53;92.46;101410.13;1941974;74;21522;-58
2022/01/30 07:00:32;;;;;;;4.17;2.08;;;;;;;0.65;92.73;101414.19;1929088;74;21038;-57
2022/01/30 07:03:18;;;;;;;2.60;1.50;;;;;;;0.77;92.94;101414.75;1942198;74;21066;-57
2022/01/30 07:05:54;;;;;;;5.55;1.85;;;;;;;0.89;93.08;101412.75;1927082;74;21614;-58
2022/01/30 07:08:28;;;;;;;5.67;1.80;;;;;;;1.02;93.26;101412.02;1899876;74;21464;-57
2022/01/30 07:10:57;;;;;;;6.97;2.90;;;;;;;1.18;93.41;101410.88;1942110;74;21091;-57
2022/01/30 07:13:25;;;;;;;4.78;2.42;;;;;;;1.28;93.41;101405.80;1929209;74;21511;-57
2022/01/30 07:15:54;;;;;;;7.40;3.85;;;;;;;1.33;93.31;101405.86;1942041;74;21521;-57
2022/01/30 07:18:23;;;;;;;9.45;5.08;;;;;;;1.36;93.28;101395.49;1929022;74;21485;-58
2022/01/30 07:20:52;;;;;;;5.78;4.15;;;;;;;1.40;93.28;101390.77;1942087;74;21042;-57
2022/01/30 07:23:21;;;;;;;6.40;5.37;;;;;;;1.51;93.33;101387.87;1928974;74;20986;-57
2022/01/30 07:25:50;;;;;;;11.70;5.42;;;;;;;1.66;93.37;101383.23;1929057;74;20979;-57
2022/01/30 07:28:19;;;;;;;10.40;5.22;;;;;;;1.86;93.60;101391.58;1929082;74;21453;-56
2022/01/30 07:30:47;;;;;;;10.25;4.78;;;;;;;2.11;93.84;101392.63;1929024;74;21445;-57
2022/01/30 07:33:16;;;;;;;13.03;4.15;;;;;;;2.39;93.96;101392.78;1929097;74;21093;-57
2022/01/30 07:35:45;;;;;;;6.53;4.05;;;;;;;2.60;94.00;101395.91;1929104;74;21016;-57
2022/01/30 07:38:15;;;;;;;5.78;2.90;;;;;;;2.73;94.13;101386.42;1929071;74;21507;-57
2022/01/30 07:40:44;;;;;;;7.92;3.37;;;;;;;2.86;94.23;101387.78;1929047;74;21077;-57
2022/01/30 07:43:13;;;;;;;10.80;4.10;;;;;;;2.85;94.17;101383.88;1929062;74;21104;-58
2022/01/30 07:45:43;;;;;;;5.33;3.62;;;;;;;2.85;94.26;101383.88;1927688;74;21102;-57
2022/01/30 07:48:11;;;;;;;7.42;3.30;;;;;;;2.82;94.21;101377.34;1929082;74;21010;-57
2022/01/30 07:50:40;;;;;;;11.30;3.80;;;;;;;2.82;94.28;101362.63;1929339;74;21131;-57
2022/01/30 07:53:09;;;;;;;6.00;3.08;;;;;;;2.75;94.19;101363.48;1929321;74;21103;-57
2022/01/30 07:55:38;;;;;;;8.93;3.08;;;;;;;2.56;94.07;101348.66;1929005;74;21010;-57
2022/01/30 07:58:06;;;;;;;9.45;3.30;;;;;;;2.48;94.03;101330.44;1929013;74;21099;-57
2022/01/30 08:00:35;;;;;;;9.68;2.58;;;;;;;3.37;93.82;101331.90;1929097;74;21450;-57
2022/01/30 08:03:04;;;;;;;5.83;2.05;;;;;;;3.89;93.02;101324.91;1913902;74;21368;-57
2022/01/30 08:05:33;;;;;;;4.47;2.50;;;;;;;4.14;93.02;101318.77;1899767;75;21461;-58
2022/01/30 08:08:02;;;;;;;3.27;1.22;;;;;;;4.83;90.57;101308.44;1899930;75;21033;-57
2022/01/30 08:10:30;;;;;;;5.33;1.60;;;;;;;5.98;90.40;101304.03;1900025;74;21111;-58
2022/01/30 08:13:00;;;;;;;6.12;2.10;;;;;;;7.84;86.62;101296.46;1899828;75;21061;-58
2022/01/30 08:15:29;;;;;;;6.17;3.00;;;;;;;9.70;81.96;101286.17;1899762;75;21509;-57
2022/01/30 08:17:57;;;;;;;3.87;1.40;;;;;;;11.29;78.34;101285.00;1899775;75;21554;-58
2022/01/30 08:20:27;;;;;;;4.03;1.60;;;;;;;12.54;75.82;101276.12;1899775;75;21123;-57
2022/01/30 08:22:57;;;;;;;2.62;1.42;;;;;;;13.54;74.06;101269.91;1899708;75;21516;-58
2022/01/30 08:25:26;;;;;;;4.28;1.00;;;;;;;14.38;72.33;101265.28;1899805;75;21504;-58
2022/01/30 08:27:55;;;;;;;2.45;1.00;;;;;;;14.74;71.65;101261.40;1899958;75;21504;-58
2022/01/30 08:30:27;;;;;;;4.47;1.27;;;;;;;15.11;71.07;101264.05;1899811;75;21535;-57
2022/01/30 08:32:55;;;;;;;3.65;0.85;;;;;;;15.28;70.40;101254.77;1899802;75;21092;-57
2022/01/30 08:35:23;;;;;;;2.90;0.90;;;;;;;15.22;69.93;101249.78;1899689;75;21041;-59
2022/01/30 08:37:52;;;;;;;1.80;0.90;;;;;;;14.99;69.20;101238.98;1899828;75;21484;-58
2022/01/30 08:40:22;;;;;;;0.82;0.80;;;;;;;15.05;69.60;101239.55;1899794;75;21053;-57
2022/01/30 08:42:52;;;;;;;1.80;0.82;;;;;;;14.94;69.12;101229.06;1900039;75;21018;-57
2022/01/30 08:45:21;;;;;;;2.30;1.00;;;;;;;14.90;69.09;101229.67;1899818;75;21362;-57
2022/01/30 08:47:52;;;;;;;2.90;0.80;;;;;;;14.76;70.17;101223.74;1899754;75;21473;-58
2022/01/30 08:50:22;;;;;;;2.42;0.70;;;;;;;15.01;69.82;101219.87;1899853;75;21034;-57
2022/01/30 08:52:51;;;;;;;3.37;0.98;;;;;;;15.26;68.19;101211.54;1899825;75;21013;-56
2022/01/30 08:55:20;;;;;;;0.90;0.70;;;;;;;15.30;68.32;101203.81;1899761;75;21041;-57
2022/01/30 08:57:50;;;;;;;2.65;1.22;;;;;;;15.19;66.30;101199.05;1899750;75;21543;-57
2022/01/30 09:00:19;;;;;;;2.00;1.20;;;;;;;15.19;67.51;101200.38;1899856;75;21104;-59
2022/01/30 09:02:49;;;;;;;2.35;0.90;;;;;;;15.27;68.07;101203.11;1899412;74;21464;-58
2022/01/30 09:05:17;;;;;;;1.98;1.10;;;;;;;15.19;66.69;101184.94;1896953;76;21006;-56
2022/01/30 09:07:46;;;;;;;2.27;0.90;;;;;;;15.22;66.95;101183.46;1897094;76;21554;-56
2022/01/30 09:10:15;;;;;;;3.55;0.98;;;;;;;15.22;65.81;101181.66;1896943;76;21014;-56
2022/01/30 09:12:44;;;;;;;1.77;1.02;;;;;;;14.88;66.56;101187.80;1896952;76;21037;-56
2022/01/30 09:15:15;;;;;;;1.47;1.07;;;;;;;14.76;62.17;101183.13;1896871;76;21109;-57
2022/01/30 09:17:43;;;;;;;1.32;1.00;;;;;;;14.44;64.09;101190.80;1896944;76;21066;-58
2022/01/30 09:20:13;;;;;;;2.45;0.93;;;;;;;14.97;65.72;101180.71;1897096;76;21484;-58
2022/01/30 09:22:43;;;;;;;2.98;1.27;;;;;;;15.35;62.59;101160.66;1896972;76;21115;-58
2022/01/30 09:25:12;;;;;;;1.40;1.00;;;;;;;15.47;62.16;101155.64;1896917;76;21429;-57
2022/01/30 09:27:41;;;;;;;0.90;0.72;;;;;;;15.25;61.80;101170.90;1896847;76;21054;-57
2022/01/30 09:30:11;;;;;;;2.15;1.00;;;;;;;15.49;62.85;101165.70;1897047;74;21053;-57
2022/01/30 09:32:40;;;;;;;2.52;0.98;;;;;;;15.29;59.77;101142.86;1896905;76;21041;-57
2022/01/30 09:35:09;;;;;;;1.42;0.82;;;;;;;15.05;59.77;101155.16;1896872;76;21045;-57
2022/01/30 09:37:38;;;;;;;3.42;1.05;;;;;;;14.79;57.58;101148.50;1896964;76;21041;-57
2022/01/30 09:40:08;;;;;;;3.37;1.10;;;;;;;15.12;58.85;101150.38;1896909;76;21061;-57
2022/01/30 09:42:40;;;;;;;2.92;0.90;;;;;;;15.16;60.50;101143.52;1897056;76;21037;-56
2022/01/30 09:45:10;;;;;;;1.65;1.00;;;;;;;14.99;57.20;101139.06;1897090;76;21049;-57
2022/01/30 09:47:39;;;;;;;1.12;1.00;;;;;;;15.05;56.14;101136.11;1897038;76;21050;-57
2022/01/30 09:50:10;;;;;;;1.60;0.90;;;;;;;15.36;57.82;101135.85;1899630;75;21428;-57
2022/01/30 09:52:39;;;;;;;3.40;1.15;;;;;;;15.56;55.90;101130.78;1930986;74;21017;-57
2022/01/30 09:55:11;;;;;;;1.10;0.93;;;;;;;15.42;50.47;101127.55;1863259;77;21065;-57
2022/01/30 09:57:42;;;;;;;1.67;1.02;;;;;;;15.38;51.71;101123.80;1931205;74;21554;-56
2022/01/30 10:00:12;;;;;;;2.15;1.25;;;;;;;15.25;49.06;101099.72;1863401;77;21525;-56
2022/01/30 10:02:45;;;;;;;2.00;0.90;;;;;;;15.18;49.11;101108.94;1916192;74;21042;-57
2022/01/30 10:05:16;;;;;;;2.40;1.20;;;;;;;15.49;51.69;101113.95;1932418;74;21508;-56
2022/01/30 10:07:55;;;;;;;1.25;0.88;;;;;;;15.49;47.45;101108.64;1938636;73;21099;-56
2022/01/30 10:10:26;;;;;;;2.62;1.27;;;;;;;15.38;47.29;101103.45;1902875;75;21135;-58
2022/01/30 10:13:09;;;;;;;3.02;0.90;;;;;;;15.25;47.34;101094.41;1936529;74;21457;-57
2022/01/30 10:15:58;;;;;;;1.47;1.20;;;;;;;15.53;49.13;101073.03;1868451;76;21086;-57
2022/01/30 10:18:32;;;;;;;2.50;1.02;;;;;;;15.77;49.07;101086.81;1917900;75;21153;-57
2022/01/30 10:20:58;;;;;;;1.47;1.12;;;;;;;15.81;50.22;101073.27;1886354;75;21130;-57
2022/01/30 10:23:37;;;;;;;1.35;0.95;;;;;;;15.80;49.80;101071.55;1886854;76;21546;-56
2022/01/30 10:26:12;;;;;;;3.12;1.07;;;;;;;15.76;50.42;101067.35;1886791;76;21084;-60
2022/01/30 10:28:41;;;;;;;2.85;0.90;;;;;;;15.49;52.37;101068.84;1908759;74;21029;-59
2022/01/30 10:31:11;;;;;;;1.65;0.70;;;;;;;15.42;52.95;101069.18;1895951;76;21128;-58
2022/01/30 10:33:48;;;;;;;1.32;1.15;;;;;;;15.58;50.95;101065.68;1924956;74;21034;-58
2022/01/30 10:36:32;;;;;;;3.15;0.78;;;;;;;15.54;51.29;101061.48;1929028;74;21164;-60
2022/01/30 10:39:06;;;;;;;3.05;1.30;;;;;;;15.57;53.67;101060.00;1928639;74;21472;-59
2022/01/30 10:41:41;;;;;;;1.57;1.05;;;;;;;15.68;51.44;101044.78;1929060;74;21453;-59
2022/01/30 10:44:10;;;;;;;5.10;0.95;;;;;;;15.90;52.93;101033.41;1909268;74;21052;-57
2022/01/30 10:46:44;;;;;;;3.10;1.87;;;;;;;15.48;49.75;101029.98;1904021;75;21059;-58
2022/01/30 10:49:22;;;;;;;3.27;0.85;;;;;;;15.22;45.96;101018.52;1908666;75;21113;-58
2022/01/30 10:51:59;;;;;;;1.25;0.80;;;;;;;14.93;49.58;101042.61;1919487;75;21112;-58
2022/01/30 10:54:33;;;;;;;0.88;0.70;;;;;;;14.74;47.52;101039.22;1919469;75;21136;-58
2022/01/30 10:57:06;;;;;;;3.25;1.00;;;;;;;14.85;51.96;101032.89;1919348;73;21038;-59
2022/01/30 10:59:38;;;;;;;;;;;;;;;14.82;51.54;101019.78;1920741;75;21493;-58
2022/01/30 11:02:22;;;;;;;3.02;1.10;;;;;;;15.04;50.22;101024.33;1909729;75;20108;-58
2022/01/30 11:04:53;;;;;;;1.72;1.00;;;;;;;14.99;52.61;101033.47;1919423;73;21132;-58
2022/01/30 11:07:27;;;;;;;2.55;1.07;;;;;;;14.91;54.58;101017.97;1954218;73;21139;-58
2022/01/30 11:10:05;;;;;;;1.37;0.80;;;;;;;14.73;47.87;101004.36;1934009;74;21027;-59
2022/01/30 11:12:40;;;;;;;2.67;0.80;;;;;;;14.35;53.44;101005.81;1951394;73;20991;-59
2022/01/30 11:15:21;;;;;;;1.82;0.75;;;;;;;14.45;55.49;101000.45;1950139;73;21109;-58
2022/01/30 11:17:48;;;;;;;2.80;0.80;;;;;;;14.44;53.95;100986.80;1951480;73;21147;-59
2022/01/30 11:20:18;;;;;;;2.50;0.98;;;;;;;14.67;54.71;100999.77;1952165;73;21026;-59
2022/01/30 11:22:48;;;;;;;1.37;0.90;;;;;;;14.84;55.38;100999.34;1952224;73;21097;-59
2022/01/30 11:25:17;;;;;;;0.93;0.55;;;;;;;14.23;56.80;100984.31;1918719;73;21077;-59
2022/01/30 11:27:47;;;;;;;2.55;0.80;;;;;;;12.39;54.22;100973.03;1905471;75;21132;-61
2022/01/30 11:30:16;;;;;;;3.37;0.90;;;;;;;12.81;59.62;100981.33;1907483;75;21176;-59
2022/01/30 11:32:45;;;;;;;3.67;1.20;;;;;;;13.64;60.18;100974.41;1901866;75;21129;-58
2022/01/30 11:35:14;;;;;;;1.15;0.70;;;;;;;13.77;55.77;100965.41;1899743;75;21045;-60
2022/01/30 11:37:44;;;;;;;3.15;1.80;;;;;;;13.29;56.46;100968.13;1899916;75;21038;-59
2022/01/30 11:40:18;;;;;;;1.65;0.90;;;;;;;12.82;59.82;100943.39;1904180;74;21116;-63
2022/01/30 11:42:49;;;;;;;4.53;1.15;;;;;;;13.10;61.78;100962.37;1923654;74;21140;-61
2022/01/30 11:45:28;;;;;;;1.92;0.90;;;;;;;11.69;58.57;100940.70;1924572;74;21119;-60
2022/01/30 11:47:58;;;;;;;1.45;0.93;;;;;;;11.55;61.36;100953.14;1924036;73;20995;-59
2022/01/30 11:50:31;;;;;;;2.33;0.85;;;;;;;11.49;60.03;100958.63;1924872;74;21111;-59
2022/01/30 11:53:06;;;;;;;2.62;0.60;;;;;;;11.55;57.71;100933.36;1924558;74;21033;-60
2022/01/30 11:55:57;;;;;;;4.45;1.22;;;;;;;10.48;61.12;100938.27;1924466;74;21018;-60
2022/01/30 11:58:35;;;;;;;1.60;0.75;;;;;;;9.54;63.78;100946.16;1924518;74;21461;-60
2022/01/30 12:01:15;;;;;;;2.45;0.70;;;;;;;9.22;60.99;100939.25;1923544;74;21150;-62
2022/01/30 12:03:59;;;;;;;1.37;0.88;;;;;;;9.53;65.45;100927.80;1920985;74;21053;-63
2022/01/30 12:06:29;;;;;;;1.40;0.55;;;;;;;9.04;65.68;100941.99;1927007;74;21094;-60
2022/01/30 12:09:03;;;;;;;4.17;1.80;;;;;;;8.30;62.74;100936.99;1928406;74;21615;-60
2022/01/30 12:11:43;;;;;;;1.85;0.98;;;;;;;7.81;65.59;100922.50;1928563;74;20999;-73
2022/01/30 12:14:23;;;;;;;2.30;1.20;;;;;;;7.53;65.64;100923.62;1927986;74;21031;-69
2022/01/30 12:17:00;;;;;;;2.58;1.27;;;;;;;7.32;66.56;100932.39;1927334;74;21120;-67
2022/01/30 12:19:40;;;;;;;2.70;1.35;;;;;;;7.18;68.05;100927.91;1937964;72;21072;-60
2022/01/30 12:22:23;;;;;;;1.45;0.93;;;;;;;7.18;70.52;100934.91;1938150;74;21000;-59
2022/01/30 12:24:54;;;;;;;2.12;1.00;;;;;;;7.27;71.07;100936.87;1938109;74;21067;-59
2022/01/30 12:27:24;;;;;;;1.00;0.90;;;;;;;7.42;70.85;100923.02;1938327;74;21023;-60
2022/01/30 12:29:55;;;;;;;2.67;1.00;;;;;;;7.50;70.06;100923.69;1935865;74;21106;-60
2022/01/30 12:32:27;;;;;;;1.98;0.72;;;;;;;7.38;69.82;100913.48;1938183;73;21016;-61
2022/01/30 12:34:59;;;;;;;1.07;0.75;;;;;;;7.25;72.78;100908.97;1931315;74;21079;-62
2022/01/30 12:37:33;;;;;;;1.27;0.80;;;;;;;7.17;71.69;100916.15;1966893;73;21042;-62